createdAt,value
2023-01-29T00:03:57.558Z,92512.31
2023-01-29T00:06:43.450Z,92511.28
2023-01-29T00:09:29.482Z,92510.31
2023-01-29T00:12:15.325Z,92516.41
2023-01-29T00:15:01.229Z,92517.66
2023-01-29T00:17:47.318Z,92511.06
2023-01-29T00:20:33.176Z,92517.38
2023-01-29T00:23:19.154Z,92512.78
2023-01-29T00:26:05.060Z,92508.16
2023-01-29T00:28:50.969Z,92502.72
2023-01-29T00:31:37.025Z,92499.44
2023-01-29T00:34:22.922Z,92511.75
2023-01-29T00:37:08.859Z,92512.34
2023-01-29T00:39:54.841Z,92506.63
2023-01-29T00:42:40.673Z,92501.16
2023-01-29T00:45:26.593Z,92505.06
2023-01-29T00:48:12.643Z,92508.47
2023-01-29T00:50:58.493Z,92501.78
2023-01-29T00:53:44.445Z,92505.63
2023-01-29T00:56:30.165Z,92506.16
2023-01-29T00:59:16.100Z,92513.88
2023-01-29T01:02:02.187Z,92507.41
2023-01-29T01:04:48.181Z,92508.47
2023-01-29T01:07:34.116Z,92509.69
2023-01-29T01:10:20.155Z,92509.53
2023-01-29T01:13:06.046Z,92515.38
2023-01-29T01:15:52.021Z,92515.41
2023-01-29T01:18:37.921Z,92512.06
2023-01-29T01:21:23.881Z,92519.81
2023-01-29T01:24:09.823Z,92510.25
2023-01-29T01:26:55.705Z,92519.22
2023-01-29T01:29:41.896Z,92517.13
2023-01-29T01:32:27.755Z,92520.19
2023-01-29T01:35:13.562Z,92526.72
2023-01-29T01:37:59.530Z,92524.69
2023-01-29T01:40:45.354Z,92519.56
2023-01-29T01:43:31.282Z,92532.94
2023-01-29T01:46:17.306Z,92537.56
2023-01-29T01:49:03.204Z,92538.81
2023-01-29T01:51:49.055Z,92533.94
2023-01-29T01:54:34.826Z,92540.66
2023-01-29T01:57:20.686Z,92546.84
2023-01-29T02:00:06.602Z,92537.09
2023-01-29T02:02:52.494Z,92538.84
2023-01-29T02:05:38.312Z,92546.50
2023-01-29T02:08:24.189Z,92547.31
2023-01-29T02:11:10.135Z,92553.22
2023-01-29T02:13:56.201Z,92546.47
2023-01-29T02:16:41.883Z,92548.03
2023-01-29T02:19:27.895Z,92558.69
2023-01-29T02:22:13.834Z,92568.13
2023-01-29T02:24:59.651Z,92569.69
2023-01-29T02:27:45.544Z,92568.38
2023-01-29T02:30:31.325Z,92569.72
2023-01-29T02:33:17.320Z,92577.94
2023-01-29T02:36:03.355Z,92573.81
2023-01-29T02:38:49.177Z,92572.81
2023-01-29T02:41:35.097Z,92577.16
2023-01-29T02:44:20.983Z,92577.94
2023-01-29T02:47:06.757Z,92567.13
2023-01-29T02:49:52.607Z,92579.16
2023-01-29T02:52:40.583Z,92573.00
2023-01-29T02:55:26.497Z,92583.06
2023-01-29T02:58:12.458Z,92575.09
2023-01-29T03:00:58.497Z,92568.94
2023-01-29T03:03:44.514Z,92582.06
2023-01-29T03:06:30.588Z,92577.94
2023-01-29T03:09:16.332Z,92580.72
2023-01-29T03:12:02.312Z,92584.91
2023-01-29T03:14:50.354Z,92567.13
2023-01-29T03:17:36.200Z,92574.56
2023-01-29T03:20:22.128Z,92575.13
2023-01-29T03:23:08.014Z,92575.59
2023-01-29T03:25:53.835Z,92581.78
2023-01-29T03:28:39.787Z,92578.44
2023-01-29T03:31:25.619Z,92580.75
2023-01-29T03:34:12.022Z,92579.50
2023-01-29T03:36:57.912Z,92583.34
2023-01-29T03:39:43.842Z,92575.63
2023-01-29T03:42:29.758Z,92571.75
2023-01-29T03:45:15.738Z,92574.53
2023-01-29T03:48:01.688Z,92582.81
2023-01-29T03:50:47.652Z,92585.91
2023-01-29T03:53:33.453Z,92587.47
2023-01-29T03:56:19.154Z,92576.84
2023-01-29T03:59:05.243Z,92583.59
2023-01-29T04:01:51.065Z,92570.75
2023-01-29T04:04:36.940Z,92573.56
2023-01-29T04:07:22.823Z,92582.28
2023-01-29T04:10:08.666Z,92570.69
2023-01-29T04:12:54.757Z,92574.47
2023-01-29T04:15:40.564Z,92572.09
2023-01-29T04:18:26.498Z,92581.25
2023-01-29T04:21:12.483Z,92585.59
2023-01-29T04:23:58.418Z,92579.16
2023-01-29T04:26:44.415Z,92584.31
2023-01-29T04:29:30.404Z,92582.81
2023-01-29T04:32:16.567Z,92580.75
2023-01-29T04:35:02.472Z,92579.41
2023-01-29T04:37:48.340Z,92577.91
2023-01-29T04:40:34.366Z,92575.84
2023-01-29T04:43:22.258Z,92584.06
2023-01-29T04:46:08.139Z,92576.84
2023-01-29T04:48:54.061Z,92580.97
2023-01-29T04:51:39.986Z,92573.28
2023-01-29T04:54:25.904Z,92570.97
2023-01-29T04:57:11.812Z,92575.59
2023-01-29T04:59:57.698Z,92580.72
2023-01-29T05:02:43.794Z,92578.38
2023-01-29T05:05:29.716Z,92570.97
2023-01-29T05:08:15.605Z,92587.66
2023-01-29T05:11:01.594Z,92584.31
2023-01-29T05:13:47.514Z,92578.38
2023-01-29T05:16:33.374Z,92576.25
2023-01-29T05:19:19.243Z,92589.31
2023-01-29T05:22:05.159Z,92596.38
2023-01-29T05:24:51.007Z,92600.25
2023-01-29T05:27:37.078Z,92610.28
2023-01-29T05:30:22.957Z,92607.16
2023-01-29T05:33:08.829Z,92608.97
2023-01-29T05:35:54.672Z,92623.72
2023-01-29T05:38:42.658Z,92617.19
2023-01-29T05:41:28.664Z,92622.69
2023-01-29T05:44:14.493Z,92629.84
2023-01-29T05:47:00.471Z,92624.66
2023-01-29T05:49:46.409Z,92633.16
2023-01-29T05:52:32.208Z,92639.66
2023-01-29T05:55:18.491Z,92640.66
2023-01-29T05:58:05.958Z,92639.03
2023-01-29T06:00:51.970Z,92651.72
2023-01-29T06:03:38.128Z,92640.31
2023-01-29T06:06:24.098Z,92640.28
2023-01-29T06:09:10.001Z,92650.56
2023-01-29T06:11:55.868Z,92657.94
2023-01-29T06:14:41.759Z,92658.72
2023-01-29T06:17:27.682Z,92661.00
2023-01-29T06:20:13.725Z,92665.66
2023-01-29T06:22:59.623Z,92671.03
2023-01-29T06:25:45.537Z,92671.75
2023-01-29T06:28:31.425Z,92681.56
2023-01-29T06:31:36.723Z,92682.84
2023-01-29T06:34:23.390Z,92683.78
2023-01-29T06:37:09.313Z,92693.16
2023-01-29T06:39:55.173Z,92695.00
2023-01-29T06:42:41.065Z,92702.97
2023-01-29T06:45:26.849Z,92701.69
2023-01-29T06:48:12.884Z,92710.44
2023-01-29T06:50:58.706Z,92706.03
2023-01-29T06:53:46.205Z,92698.53
2023-01-29T06:56:32.645Z,92693.66
2023-01-29T06:59:18.608Z,92699.59
2023-01-29T07:02:04.489Z,92705.22
2023-01-29T07:04:50.430Z,92714.72
2023-01-29T07:07:36.315Z,92712.47
2023-01-29T07:10:22.073Z,92724.06
2023-01-29T07:13:07.944Z,92721.13
2023-01-29T07:15:53.686Z,92726.84
2023-01-29T07:18:39.643Z,92728.09
2023-01-29T07:21:25.596Z,92726.88
2023-01-29T07:24:11.491Z,92721.47
2023-01-29T07:26:57.251Z,92716.84
2023-01-29T07:29:43.017Z,92719.63
2023-01-29T07:32:28.873Z,92707.28
2023-01-29T07:35:14.781Z,92694.34
2023-01-29T07:38:00.654Z,92693.28
2023-01-29T07:40:46.545Z,92688.84
2023-01-29T07:43:32.344Z,92689.91
2023-01-29T07:46:20.176Z,92706.00
2023-01-29T07:49:06.204Z,92701.59
2023-01-29T07:51:52.097Z,92707.13
2023-01-29T07:54:38.043Z,92704.06
2023-01-29T07:57:24.010Z,92706.25
2023-01-29T08:00:09.941Z,92707.84
2023-01-29T08:02:55.940Z,92695.28
2023-01-29T08:05:41.824Z,92688.19
2023-01-29T08:08:27.677Z,92709.25
2023-01-29T08:11:13.756Z,92721.00
2023-01-29T08:13:59.586Z,92711.19
2023-01-29T08:16:45.525Z,92710.69
2023-01-29T08:19:31.582Z,92707.16
2023-01-29T08:22:17.398Z,92717.03
2023-01-29T08:25:08.337Z,92715.66
2023-01-29T08:27:54.434Z,92715.16
2023-01-29T08:30:42.314Z,92706.88
2023-01-29T08:33:40.071Z,92700.56
2023-01-29T08:36:26.087Z,92707.28
2023-01-29T08:39:11.910Z,92711.03
2023-01-29T08:41:57.861Z,92718.19
2023-01-29T08:44:43.666Z,92714.38
2023-01-29T08:47:29.761Z,92717.13
2023-01-29T08:50:16.234Z,92727.31
2023-01-29T08:53:02.320Z,92734.34
2023-01-29T08:55:48.187Z,92738.22
2023-01-29T08:58:34.446Z,92739.00
2023-01-29T09:01:20.411Z,92734.41
2023-01-29T09:04:06.375Z,92721.38
2023-01-29T09:06:52.191Z,92724.84
2023-01-29T09:09:38.133Z,92725.09
2023-01-29T09:12:23.935Z,92720.97
2023-01-29T09:15:09.764Z,92732.25
2023-01-29T09:17:55.731Z,92731.22
2023-01-29T09:20:41.654Z,92732.06
2023-01-29T09:23:27.472Z,92734.56
2023-01-29T09:26:13.483Z,92743.13
2023-01-29T09:28:59.330Z,92742.19
2023-01-29T09:31:45.316Z,92744.13
2023-01-29T09:34:31.189Z,92752.63
2023-01-29T09:37:16.997Z,92756.16
2023-01-29T09:40:02.806Z,92759.50
2023-01-29T09:42:48.722Z,92769.53
2023-01-29T09:45:36.553Z,92765.63
2023-01-29T09:48:22.554Z,92769.88
2023-01-29T09:51:08.382Z,92764.81
2023-01-29T09:53:54.311Z,92778.78
2023-01-29T09:56:40.160Z,92777.72
2023-01-29T09:59:25.981Z,92783.22
2023-01-29T10:02:12.154Z,92785.50
2023-01-29T10:04:58.570Z,92798.09
2023-01-29T10:07:44.361Z,92802.66
2023-01-29T10:10:30.217Z,92799.69
2023-01-29T10:13:16.083Z,92797.63
2023-01-29T10:16:01.939Z,92801.69
2023-01-29T10:18:47.838Z,92805.97
2023-01-29T10:21:33.582Z,92805.06
2023-01-29T10:24:19.657Z,92810.03
2023-01-29T10:27:05.497Z,92810.25
2023-01-29T10:29:51.281Z,92804.72
2023-01-29T10:32:37.232Z,92810.69
2023-01-29T10:35:23.171Z,92803.44
2023-01-29T10:38:09.034Z,92802.91
2023-01-29T10:40:55.092Z,92801.72
2023-01-29T10:43:40.960Z,92801.00
2023-01-29T10:46:26.799Z,92800.00
2023-01-29T10:49:12.600Z,92798.09
2023-01-29T10:51:58.530Z,92794.34
2023-01-29T10:54:44.469Z,92798.50
2023-01-29T10:57:30.431Z,92794.34
2023-01-29T11:00:16.339Z,92793.38
2023-01-29T11:03:02.540Z,92790.50
2023-01-29T11:05:48.612Z,92786.91
2023-01-29T11:08:34.559Z,92790.94
2023-01-29T11:11:20.461Z,92783.50
2023-01-29T11:14:06.333Z,92783.25
2023-01-29T11:16:52.423Z,92784.84
2023-01-29T11:19:38.281Z,92790.72
2023-01-29T11:22:24.237Z,92786.16
2023-01-29T11:25:10.160Z,92796.19
2023-01-29T11:27:56.118Z,92796.91
2023-01-29T11:30:42.131Z,92794.00
2023-01-29T11:33:28.067Z,92777.81
2023-01-29T11:36:13.944Z,92771.28
2023-01-29T11:38:59.899Z,92784.75
2023-01-29T11:41:45.699Z,92774.84
2023-01-29T11:44:31.542Z,92764.19
2023-01-29T11:47:17.555Z,92765.13
2023-01-29T11:50:03.535Z,92770.72
2023-01-29T11:52:49.456Z,92766.09
2023-01-29T11:55:49.483Z,92764.81
2023-01-29T11:58:36.009Z,92765.38
2023-01-29T12:01:21.970Z,92754.28
2023-01-29T12:04:07.831Z,92756.94
2023-01-29T12:06:53.807Z,92751.06
2023-01-29T12:09:39.602Z,92756.00
2023-01-29T12:12:25.367Z,92739.19
2023-01-29T12:15:11.296Z,92739.09
2023-01-29T12:17:57.193Z,92737.94
2023-01-29T12:20:43.132Z,92731.34
2023-01-29T12:23:29.136Z,92726.00
2023-01-29T12:26:15.103Z,92728.97
2023-01-29T12:29:01.162Z,92725.13
2023-01-29T12:31:47.056Z,92723.03
2023-01-29T12:34:32.909Z,92721.41
2023-01-29T12:37:18.721Z,92719.66
2023-01-29T12:40:04.736Z,92722.81
2023-01-29T12:42:50.769Z,92721.13
2023-01-29T12:45:36.569Z,92725.34
2023-01-29T12:48:22.316Z,92720.50
2023-01-29T12:51:08.240Z,92715.59
2023-01-29T12:53:54.161Z,92711.09
2023-01-29T12:56:40.108Z,92709.06
2023-01-29T12:59:27.429Z,92701.28
2023-01-29T13:02:14.818Z,92702.69
2023-01-29T13:05:00.816Z,92699.50
2023-01-29T13:07:46.664Z,92704.78
2023-01-29T13:10:32.638Z,92708.97
2023-01-29T13:13:18.366Z,92709.47
2023-01-29T13:16:04.564Z,92701.91
2023-01-29T13:18:50.410Z,92705.00
2023-01-29T13:21:36.470Z,92710.97
2023-01-29T13:24:22.187Z,92711.78
2023-01-29T13:27:08.079Z,92709.03
2023-01-29T13:29:54.128Z,92703.72
2023-01-29T13:32:39.973Z,92716.75
2023-01-29T13:35:25.910Z,92709.19
2023-01-29T13:38:11.887Z,92704.22
2023-01-29T13:40:57.822Z,92710.81
2023-01-29T13:43:43.760Z,92719.63
2023-01-29T13:46:29.666Z,92708.94
2023-01-29T13:49:15.514Z,92706.06
2023-01-29T13:52:01.464Z,92716.91
2023-01-29T13:54:47.374Z,92715.97
2023-01-29T13:57:33.432Z,92713.03
2023-01-29T14:00:19.282Z,92719.78
2023-01-29T14:03:05.259Z,92711.06
2023-01-29T14:05:51.198Z,92719.56
2023-01-29T14:08:37.032Z,92717.00
2023-01-29T14:11:22.877Z,92715.72
2023-01-29T14:14:08.762Z,92717.91
2023-01-29T14:16:54.630Z,92722.25
2023-01-29T14:19:40.680Z,92725.44
2023-01-29T14:22:26.505Z,92730.56
2023-01-29T14:25:12.366Z,92736.25
2023-01-29T14:27:58.318Z,92733.50
2023-01-29T14:30:44.307Z,92731.88
2023-01-29T14:33:30.321Z,92732.81
2023-01-29T14:36:16.280Z,92732.41
2023-01-29T14:39:02.138Z,92733.16
2023-01-29T14:41:48.107Z,92732.25
2023-01-29T14:44:34.046Z,92735.94
2023-01-29T14:47:20.071Z,92736.66
2023-01-29T14:50:06.112Z,92738.81
2023-01-29T14:52:51.984Z,92738.63
2023-01-29T14:55:38.030Z,92736.97
2023-01-29T14:58:23.882Z,92726.00
2023-01-29T15:01:09.907Z,92720.38
2023-01-29T15:03:55.941Z,92719.72
2023-01-29T15:06:41.889Z,92714.97
2023-01-29T15:09:35.933Z,92715.84
2023-01-29T15:12:22.629Z,92713.09
2023-01-29T15:15:08.521Z,92704.72
2023-01-29T15:17:54.466Z,92701.78
2023-01-29T15:20:40.329Z,92702.09
2023-01-29T15:23:26.312Z,92692.94
2023-01-29T15:26:12.242Z,92693.78
2023-01-29T15:29:04.329Z,92703.97
2023-01-29T15:31:51.322Z,92697.13
2023-01-29T15:34:37.595Z,92694.06
2023-01-29T15:37:23.416Z,92682.34
2023-01-29T15:40:09.529Z,92682.28
2023-01-29T15:42:55.507Z,92689.91
2023-01-29T15:45:41.467Z,92697.59
2023-01-29T15:48:27.373Z,92697.78
2023-01-29T15:51:13.233Z,92704.19
2023-01-29T15:53:59.228Z,92703.09
2023-01-29T15:56:45.094Z,92707.25
2023-01-29T15:59:30.932Z,92715.84
2023-01-29T16:02:16.933Z,92728.59
2023-01-29T16:05:02.793Z,92717.69
2023-01-29T16:07:48.823Z,92718.38
2023-01-29T16:10:34.746Z,92716.31
2023-01-29T16:13:20.629Z,92714.94
2023-01-29T16:16:06.729Z,92713.31
2023-01-29T16:19:00.070Z,92715.34
2023-01-29T16:21:47.427Z,92705.84
2023-01-29T16:24:33.232Z,92708.44
2023-01-29T16:27:19.069Z,92703.47
2023-01-29T16:30:05.057Z,92704.50
2023-01-29T16:32:51.026Z,92707.25
2023-01-29T16:35:36.951Z,92703.75
2023-01-29T16:38:22.954Z,92706.84
2023-01-29T16:41:08.887Z,92712.72
2023-01-29T16:43:54.904Z,92713.63
2023-01-29T16:46:41.041Z,92713.72
2023-01-29T16:49:27.068Z,92709.56
2023-01-29T16:52:13.084Z,92716.16
2023-01-29T16:54:58.941Z,92716.28
2023-01-29T16:57:44.794Z,92721.34
2023-01-29T17:00:30.630Z,92725.59
2023-01-29T17:03:16.806Z,92723.75
2023-01-29T17:06:02.701Z,92728.84
2023-01-29T17:08:48.607Z,92724.91
2023-01-29T17:11:34.595Z,92726.34
2023-01-29T17:14:20.475Z,92732.16
2023-01-29T17:17:06.463Z,92735.41
2023-01-29T17:19:52.421Z,92741.81
2023-01-29T17:22:38.316Z,92737.75
2023-01-29T17:25:24.470Z,92750.63
2023-01-29T17:28:10.679Z,92748.63
2023-01-29T17:31:05.877Z,92748.03
2023-01-29T17:33:52.922Z,92753.84
2023-01-29T17:36:38.769Z,92766.97
2023-01-29T17:39:24.869Z,92764.97
2023-01-29T17:42:12.803Z,92766.03
2023-01-29T17:44:58.626Z,92775.25
2023-01-29T17:47:44.542Z,92771.94
2023-01-29T17:50:30.516Z,92771.88
2023-01-29T17:53:16.485Z,92768.09
2023-01-29T17:56:02.464Z,92773.94
2023-01-29T17:58:48.336Z,92785.53
2023-01-29T18:01:36.249Z,92777.84
2023-01-29T18:04:22.293Z,92776.81
2023-01-29T18:07:08.176Z,92774.00
2023-01-29T18:09:54.261Z,92769.63
2023-01-29T18:12:40.540Z,92776.03
2023-01-29T18:15:26.483Z,92779.88
2023-01-29T18:18:13.470Z,92770.91
2023-01-29T18:20:59.372Z,92769.88
2023-01-29T18:23:45.303Z,92761.00
2023-01-29T18:26:31.220Z,92758.97
2023-01-29T18:29:17.176Z,92753.47
2023-01-29T18:32:03.046Z,92759.59
2023-01-29T18:34:49.397Z,92761.91
2023-01-29T18:37:35.247Z,92756.50
2023-01-29T18:40:21.242Z,92764.59
2023-01-29T18:43:07.137Z,92756.53
2023-01-29T18:45:53.169Z,92761.38
2023-01-29T18:48:41.600Z,92755.47
2023-01-29T18:51:28.326Z,92749.25
2023-01-29T18:54:14.195Z,92744.94
2023-01-29T18:57:11.150Z,92734.16
2023-01-29T19:00:00.118Z,92741.06
2023-01-29T19:02:46.546Z,92740.22
2023-01-29T19:05:32.498Z,92735.13
2023-01-29T19:08:18.538Z,92741.78
2023-01-29T19:11:04.457Z,92746.09
2023-01-29T19:13:50.448Z,92747.56
2023-01-29T19:16:38.393Z,92753.66
2023-01-29T19:19:24.376Z,92751.00
2023-01-29T19:22:10.275Z,92757.50
2023-01-29T19:24:56.211Z,92761.09
2023-01-29T19:27:42.169Z,92752.19
2023-01-29T19:30:28.045Z,92762.09
2023-01-29T19:33:14.114Z,92763.84
2023-01-29T19:36:00.062Z,92767.22
2023-01-29T19:38:45.932Z,92762.38
2023-01-29T19:41:31.880Z,92771.84
2023-01-29T19:44:17.730Z,92780.97
2023-01-29T19:47:03.645Z,92766.34
2023-01-29T19:49:49.590Z,92772.09
2023-01-29T19:52:50.151Z,92770.91
2023-01-29T19:55:37.006Z,92779.34
2023-01-29T19:58:22.992Z,92784.78
2023-01-29T20:01:08.964Z,92790.72
2023-01-29T20:03:55.004Z,92806.28
2023-01-29T20:06:40.941Z,92795.88
2023-01-29T20:09:26.877Z,92793.72
2023-01-29T20:12:12.937Z,92796.28
2023-01-29T20:14:58.698Z,92803.03
2023-01-29T20:17:44.587Z,92792.78
2023-01-29T20:20:32.614Z,92797.91
2023-01-29T20:23:35.233Z,92799.88
2023-01-29T20:26:23.027Z,92809.41
2023-01-29T20:29:09.439Z,92806.16
2023-01-29T20:31:55.296Z,92811.91
2023-01-29T20:34:41.201Z,92811.59
2023-01-29T20:37:27.204Z,92819.78
2023-01-29T20:40:13.166Z,92818.75
2023-01-29T20:42:59.146Z,92811.59
2023-01-29T20:45:44.976Z,92821.13
2023-01-29T20:48:31.339Z,92814.16
2023-01-29T20:51:17.242Z,92818.03
2023-01-29T20:54:03.100Z,92812.09
2023-01-29T20:56:49.078Z,92822.66
2023-01-29T20:59:35.087Z,92817.50
2023-01-29T21:02:21.108Z,92827.56
2023-01-29T21:05:07.105Z,92826.19
2023-01-29T21:07:53.075Z,92830.44
2023-01-29T21:10:38.949Z,92834.97
2023-01-29T21:13:24.951Z,92834.25
2023-01-29T21:16:10.907Z,92824.31
2023-01-29T21:18:57.119Z,92833.16
2023-01-29T21:21:43.016Z,92828.59
2023-01-29T21:24:28.936Z,92824.53
2023-01-29T21:27:14.963Z,92828.75
2023-01-29T21:30:00.885Z,92828.41
2023-01-29T21:32:49.701Z,92824.91
2023-01-29T21:35:35.638Z,92823.84
2023-01-29T21:38:21.605Z,92823.13
2023-01-29T21:41:07.725Z,92814.94
2023-01-29T21:43:53.775Z,92820.03
2023-01-29T21:46:39.598Z,92815.63
2023-01-29T21:49:25.595Z,92812.19
2023-01-29T21:52:11.633Z,92817.97
2023-01-29T21:54:57.599Z,92810.75
2023-01-29T21:57:43.583Z,92814.47
2023-01-29T22:00:29.519Z,92804.13
2023-01-29T22:03:15.507Z,92807.44
2023-01-29T22:06:01.577Z,92800.41
2023-01-29T22:08:47.411Z,92800.34
2023-01-29T22:11:33.486Z,92804.38
2023-01-29T22:14:19.356Z,92800.13
2023-01-29T22:17:05.435Z,92807.69
2023-01-29T22:19:51.446Z,92798.97
2023-01-29T22:22:37.222Z,92800.22
2023-01-29T22:25:23.255Z,92804.13
2023-01-29T22:28:09.124Z,92793.03
2023-01-29T22:30:55.213Z,92794.84
2023-01-29T22:33:41.178Z,92788.13
2023-01-29T22:36:27.173Z,92787.63
2023-01-29T22:39:13.102Z,92783.78
2023-01-29T22:41:59.152Z,92783.50
2023-01-29T22:44:44.960Z,92774.88
2023-01-29T22:47:30.817Z,92760.75
2023-01-29T22:50:17.210Z,92764.44
2023-01-29T22:53:03.450Z,92760.88
2023-01-29T22:55:49.344Z,92762.56
2023-01-29T22:58:35.171Z,92745.44
2023-01-29T23:01:21.174Z,92738.78
2023-01-29T23:04:07.200Z,92731.94
2023-01-29T23:06:52.979Z,92731.72
2023-01-29T23:09:38.911Z,92729.06
2023-01-29T23:12:26.856Z,92717.00
2023-01-29T23:15:12.592Z,92722.06
2023-01-29T23:17:58.469Z,92719.94
2023-01-29T23:20:44.570Z,92709.56
2023-01-29T23:23:30.417Z,92718.91
2023-01-29T23:26:16.512Z,92706.56
2023-01-29T23:29:02.454Z,92712.97
2023-01-29T23:31:48.673Z,92706.81
2023-01-29T23:34:35.014Z,92704.66
2023-01-29T23:37:20.850Z,92707.28
2023-01-29T23:40:06.811Z,92696.19
2023-01-29T23:42:52.631Z,92695.44
2023-01-29T23:45:38.487Z,92691.66
2023-01-29T23:48:24.409Z,92688.16
2023-01-29T23:51:10.306Z,92685.25
2023-01-29T23:53:56.155Z,92683.34
2023-01-29T23:56:42.081Z,92682.69
2023-01-29T23:59:27.898Z,92675.94
